General Aviation Weather

Text Reports

Enter one or more of the following location identifiers separated by a space:

Zip Code, Four-Character ICAO or Three-Character IATA airport codes.

METAR - Aviation Routine Weather Report
KTAN - Taunton, Massachusetts
Updated at 6:52 PM GMT on September 01, 2015 (2:52 PM EDT):
METAR KTAN 011852Z AUTO 00000KT 10SM CLR 29/15 A3001 RMK AO2 SLP162 T02940150
TAF - Terminal Area Forecast
KTAN - Taunton, Massachusetts
Updated at 6:52 PM GMT on September 01, 2015 (2:52 PM EDT):
No TAF is currently available for this location.
Decoded:
No decoded TAF is available.
PIREP - Pilot Weather Report
KTAN - Taunton, Massachusetts
Updated at 6:52 PM GMT on September 01, 2015 (2:52 PM EDT):
No PIREP is currently available for this location.
AIRMET - Airmens Meteorological Information
KTAN - Taunton, Massachusetts
Updated at 6:52 PM GMT on September 01, 2015 (2:52 PM EDT):
No AIRMET is currently available for this location.
SIGMET - Significant Meteorological Information
KTAN - Taunton, Massachusetts
Updated at 6:52 PM GMT on September 01, 2015 (2:52 PM EDT):
No SIGMET is currently available for this location.
NOTAM - Notice to Airmen
KTAN - Taunton, Massachusetts
Updated at 6:52 PM GMT on September 01, 2015 (2:52 PM EDT):
No NOTAM is currently available for this location.
Forecast Area
KTAN - Taunton, Massachusetts
Updated at 6:52 PM GMT on September 01, 2015 (2:52 PM EDT):
No NOTAM is currently available for this location.
Aviation Weather Maps